createdAt,value
2018-09-20T00:00:26.226Z,3.40
2018-09-20T00:02:55.054Z,5.78
2018-09-20T00:05:23.829Z,4.65
2018-09-20T00:07:52.590Z,8.25
2018-09-20T00:10:21.486Z,6.20
2018-09-20T00:12:50.444Z,6.85
2018-09-20T00:15:19.257Z,5.15
2018-09-20T00:17:48.107Z,6.30
2018-09-20T00:20:16.865Z,6.20
2018-09-20T00:22:45.748Z,3.95
2018-09-20T00:25:14.505Z,3.55
2018-09-20T00:27:43.272Z,5.70
2018-09-20T00:30:12.143Z,5.58
2018-09-20T00:32:40.895Z,4.33
2018-09-20T00:35:09.807Z,4.05
2018-09-20T00:37:38.601Z,3.85
2018-09-20T00:40:07.443Z,5.03
2018-09-20T00:42:36.194Z,5.70
2018-09-20T00:45:05.283Z,7.20
2018-09-20T00:47:34.135Z,4.65
2018-09-20T00:50:02.985Z,4.15
2018-09-20T00:52:31.843Z,6.12
2018-09-20T00:55:00.691Z,5.95
2018-09-20T00:57:29.508Z,5.80
2018-09-20T00:59:58.333Z,3.77
2018-09-20T01:02:27.094Z,4.12
2018-09-20T01:04:55.847Z,3.72
2018-09-20T01:07:24.639Z,5.45
2018-09-20T01:09:53.389Z,6.22
2018-09-20T01:12:22.143Z,6.67
2018-09-20T01:14:51.045Z,2.42
2018-09-20T01:17:19.853Z,3.60
2018-09-20T01:19:48.653Z,4.12
2018-09-20T01:22:17.988Z,5.72
2018-09-20T01:24:46.716Z,3.92
2018-09-20T01:27:15.497Z,3.58
2018-09-20T01:29:44.273Z,2.37
2018-09-20T01:32:13.070Z,3.83
2018-09-20T01:34:41.926Z,4.15
2018-09-20T01:37:10.680Z,3.77
2018-09-20T01:39:39.601Z,3.70
2018-09-20T01:42:08.379Z,3.50
2018-09-20T01:44:37.137Z,6.58
2018-09-20T01:47:05.940Z,3.25
2018-09-20T01:49:34.681Z,3.02
2018-09-20T01:52:03.562Z,3.30
2018-09-20T01:54:32.300Z,3.55
2018-09-20T01:57:01.244Z,4.80
2018-09-20T01:59:30.025Z,4.72
2018-09-20T02:01:58.765Z,2.60
2018-09-20T02:04:27.561Z,4.67
2018-09-20T02:06:56.398Z,3.77
2018-09-20T02:09:25.175Z,3.85
2018-09-20T02:11:53.902Z,3.58
2018-09-20T02:14:22.685Z,3.17
2018-09-20T02:16:51.482Z,3.20
2018-09-20T02:19:20.237Z,2.45
2018-09-20T02:21:48.981Z,3.40
2018-09-20T02:24:17.754Z,3.70
2018-09-20T02:26:46.516Z,4.58
2018-09-20T02:29:15.313Z,4.60
2018-09-20T02:31:44.105Z,4.22
2018-09-20T02:34:12.871Z,4.70
2018-09-20T02:36:41.697Z,4.50
2018-09-20T02:39:10.502Z,3.22
2018-09-20T02:41:39.315Z,5.03
2018-09-20T02:44:08.131Z,4.70
2018-09-20T02:46:36.902Z,2.85
2018-09-20T02:49:05.945Z,4.15
2018-09-20T02:51:34.686Z,4.00
2018-09-20T02:54:03.644Z,3.62
2018-09-20T02:56:32.518Z,3.27
2018-09-20T02:59:01.337Z,3.90
2018-09-20T03:01:30.103Z,3.95
2018-09-20T03:03:58.862Z,4.03
2018-09-20T03:06:27.799Z,3.85
2018-09-20T03:08:56.567Z,4.33
2018-09-20T03:11:25.402Z,4.65
2018-09-20T03:13:54.494Z,3.95
2018-09-20T03:16:23.341Z,3.10
2018-09-20T03:18:52.086Z,3.80
2018-09-20T03:21:20.829Z,3.33
2018-09-20T03:23:49.749Z,3.02
2018-09-20T03:26:18.675Z,3.85
2018-09-20T03:28:47.454Z,3.75
2018-09-20T03:31:16.265Z,2.90
2018-09-20T03:33:45.047Z,3.87
2018-09-20T03:36:13.813Z,3.17
2018-09-20T03:38:42.565Z,2.67
2018-09-20T03:41:11.330Z,3.10
2018-09-20T03:43:40.115Z,4.22
2018-09-20T03:46:08.906Z,3.02
2018-09-20T03:48:37.761Z,3.10
2018-09-20T03:51:06.869Z,2.92
2018-09-20T03:53:35.697Z,5.03
2018-09-20T03:56:04.466Z,3.55
2018-09-20T03:58:33.241Z,3.65
2018-09-20T04:01:02.059Z,4.47
2018-09-20T04:03:30.833Z,3.00
2018-09-20T04:05:59.812Z,3.55
2018-09-20T04:08:28.614Z,3.87
2018-09-20T04:10:57.455Z,3.15
2018-09-20T04:13:26.342Z,4.35
2018-09-20T04:15:55.094Z,4.70
2018-09-20T04:18:23.884Z,2.83
2018-09-20T04:20:52.714Z,2.80
2018-09-20T04:23:21.541Z,3.25
2018-09-20T04:25:50.284Z,4.35
2018-09-20T04:28:19.081Z,4.22
2018-09-20T04:30:47.914Z,4.67
2018-09-20T04:33:16.688Z,5.87
2018-09-20T04:35:45.554Z,3.92
2018-09-20T04:38:14.289Z,3.17
2018-09-20T04:40:43.161Z,4.20
2018-09-20T04:43:12.684Z,4.40
2018-09-20T04:45:41.434Z,2.65
2018-09-20T04:48:10.223Z,4.03
2018-09-20T04:50:39.008Z,2.33
2018-09-20T04:53:07.930Z,3.92
2018-09-20T04:55:36.701Z,4.08
2018-09-20T04:58:05.634Z,4.05
2018-09-20T05:00:34.424Z,3.72
2018-09-20T05:03:03.338Z,4.80
2018-09-20T05:05:32.072Z,3.62
2018-09-20T05:08:00.846Z,3.45
2018-09-20T05:10:29.652Z,3.42
2018-09-20T05:12:58.464Z,3.02
2018-09-20T05:15:27.325Z,8.83
2018-09-20T05:17:56.139Z,5.53
2018-09-20T05:20:24.952Z,2.60
2018-09-20T05:22:53.798Z,3.45
2018-09-20T05:25:22.540Z,5.70
2018-09-20T05:27:51.299Z,3.40
2018-09-20T05:30:20.116Z,3.00
2018-09-20T05:32:48.887Z,3.62
2018-09-20T05:35:17.767Z,3.87
2018-09-20T05:37:46.538Z,3.10
2018-09-20T05:40:15.317Z,5.03
2018-09-20T05:42:44.157Z,3.65
2018-09-20T05:45:12.910Z,2.67
2018-09-20T05:47:41.696Z,2.90
2018-09-20T05:50:10.563Z,5.08
2018-09-20T05:52:39.294Z,5.25
2018-09-20T05:55:08.209Z,4.62
2018-09-20T05:57:37.015Z,4.65
2018-09-20T06:00:06.569Z,5.00
2018-09-20T06:02:35.360Z,7.08
2018-09-20T06:05:04.247Z,9.23
2018-09-20T06:07:33.068Z,4.10
2018-09-20T06:10:01.927Z,9.10
2018-09-20T06:12:30.862Z,5.87
2018-09-20T06:15:00.361Z,5.05
2018-09-20T06:17:29.293Z,5.10
2018-09-20T06:19:58.065Z,8.33
2018-09-20T06:22:26.854Z,12.55
2018-09-20T06:24:55.759Z,6.67
2018-09-20T06:27:25.577Z,9.15
2018-09-20T06:29:54.330Z,13.53
2018-09-20T06:32:23.248Z,13.53
2018-09-20T06:34:52.116Z,12.35
2018-09-20T06:37:20.909Z,11.33
2018-09-20T06:39:49.662Z,10.72
2018-09-20T06:42:18.459Z,6.55
2018-09-20T06:44:47.305Z,13.53
2018-09-20T06:47:16.195Z,12.93
2018-09-20T06:49:44.982Z,8.15
2018-09-20T06:52:13.757Z,7.70
2018-09-20T06:54:42.591Z,7.58
2018-09-20T06:57:11.408Z,8.85
2018-09-20T06:59:40.178Z,13.22
2018-09-20T07:02:09.101Z,7.95
2018-09-20T07:04:37.902Z,10.10
2018-09-20T07:07:06.880Z,6.58
2018-09-20T07:09:35.631Z,7.97
2018-09-20T07:12:04.902Z,11.20
2018-09-20T07:14:33.681Z,6.92
2018-09-20T07:17:03.417Z,5.17
2018-09-20T07:19:32.305Z,6.42
2018-09-20T07:22:01.077Z,7.40
2018-09-20T07:24:29.863Z,7.22
2018-09-20T07:26:58.713Z,7.58
2018-09-20T07:29:27.637Z,7.53
2018-09-20T07:31:56.378Z,6.80
2018-09-20T07:34:25.155Z,6.92
2018-09-20T07:36:53.941Z,4.97
2018-09-20T07:39:22.744Z,7.42
2018-09-20T07:41:51.559Z,5.75
2018-09-20T07:44:20.379Z,4.80
2018-09-20T07:46:49.240Z,7.15
2018-09-20T07:49:18.064Z,8.28
2018-09-20T07:51:46.778Z,6.62
2018-09-20T07:54:15.642Z,4.22
2018-09-20T07:56:44.514Z,8.48
2018-09-20T07:59:13.281Z,6.15
2018-09-20T08:01:42.180Z,5.55
2018-09-20T08:04:10.939Z,6.12
2018-09-20T08:06:39.784Z,3.92
2018-09-20T08:09:10.921Z,4.95
2018-09-20T08:11:39.742Z,6.20
2018-09-20T08:14:08.542Z,8.25
2018-09-20T08:16:37.357Z,4.05
2018-09-20T08:19:06.189Z,5.22
2018-09-20T08:21:35.055Z,5.05
2018-09-20T08:24:04.100Z,4.65
2018-09-20T08:26:32.869Z,5.12
2018-09-20T08:29:01.662Z,4.37
2018-09-20T08:31:30.499Z,5.58
2018-09-20T08:33:59.290Z,7.25
2018-09-20T08:36:28.100Z,6.15
2018-09-20T08:38:56.871Z,5.72
2018-09-20T08:41:25.658Z,4.42
2018-09-20T08:43:54.537Z,4.83
2018-09-20T08:46:23.306Z,4.87
2018-09-20T08:48:52.125Z,4.47
2018-09-20T08:51:20.905Z,4.67
2018-09-20T08:53:49.672Z,4.83
2018-09-20T08:56:18.521Z,4.60
2018-09-20T08:58:47.455Z,4.75
2018-09-20T09:01:16.269Z,5.78
2018-09-20T09:03:45.094Z,4.90
2018-09-20T09:06:13.878Z,6.95
2018-09-20T09:08:42.735Z,5.22
2018-09-20T09:11:11.542Z,4.67
2018-09-20T09:13:40.310Z,4.35
2018-09-20T09:16:09.090Z,6.65
2018-09-20T09:18:37.877Z,7.75
2018-09-20T09:21:07.033Z,9.58
2018-09-20T09:23:35.874Z,5.42
2018-09-20T09:26:04.650Z,6.85
2018-09-20T09:28:33.677Z,8.38
2018-09-20T09:31:03.555Z,6.33
2018-09-20T09:33:32.340Z,4.83
2018-09-20T09:36:01.131Z,5.90
2018-09-20T09:38:29.938Z,4.95
2018-09-20T09:40:58.749Z,6.00
2018-09-20T09:43:27.603Z,5.53
2018-09-20T09:45:56.855Z,6.87
2018-09-20T09:48:25.642Z,5.28
2018-09-20T09:50:54.471Z,5.08
2018-09-20T09:53:23.322Z,5.17
2018-09-20T09:55:52.125Z,5.92
2018-09-20T09:58:20.904Z,6.83
2018-09-20T10:00:49.772Z,6.67
2018-09-20T10:03:18.641Z,3.85
2018-09-20T10:05:47.463Z,6.70
2018-09-20T10:08:16.238Z,5.65
2018-09-20T10:10:45.044Z,5.62
2018-09-20T10:13:13.807Z,6.58
2018-09-20T10:15:42.605Z,6.15
2018-09-20T10:18:11.522Z,5.12
2018-09-20T10:20:40.368Z,6.33
2018-09-20T10:23:09.192Z,5.55
2018-09-20T10:25:37.974Z,5.42
2018-09-20T10:28:06.815Z,6.72
2018-09-20T10:30:35.653Z,5.42
2018-09-20T10:33:04.460Z,4.78
2018-09-20T10:35:33.194Z,4.00
2018-09-20T10:38:01.923Z,6.00
2018-09-20T10:40:30.700Z,5.22
2018-09-20T10:42:59.530Z,4.20
2018-09-20T10:45:28.429Z,4.47
2018-09-20T10:47:57.209Z,4.50
2018-09-20T10:50:25.953Z,4.78
2018-09-20T10:52:54.713Z,6.10
2018-09-20T10:55:23.579Z,5.78
2018-09-20T10:57:52.324Z,6.17
2018-09-20T11:00:21.044Z,4.00
2018-09-20T11:02:49.870Z,6.37
2018-09-20T11:05:18.630Z,4.28
2018-09-20T11:07:47.426Z,3.92
2018-09-20T11:10:16.199Z,4.95
2018-09-20T11:12:44.941Z,3.47
2018-09-20T11:15:13.761Z,6.40
2018-09-20T11:17:42.564Z,4.85
2018-09-20T11:20:11.394Z,5.10
2018-09-20T11:22:40.144Z,5.22
2018-09-20T11:25:08.929Z,8.40
2018-09-20T11:27:37.775Z,4.53
2018-09-20T11:30:06.831Z,5.75
2018-09-20T11:32:35.707Z,4.35
2018-09-20T11:35:04.517Z,6.53
2018-09-20T11:37:33.307Z,4.05
2018-09-20T11:40:02.143Z,4.60
2018-09-20T11:42:30.971Z,6.40
2018-09-20T11:44:59.832Z,4.12
2018-09-20T11:47:28.723Z,3.52
2018-09-20T11:49:57.521Z,5.28
2018-09-20T11:52:26.345Z,5.97
2018-09-20T11:54:55.369Z,6.50
2018-09-20T11:57:24.339Z,5.28
2018-09-20T11:59:53.178Z,4.70
2018-09-20T12:02:22.099Z,4.87
2018-09-20T12:04:50.937Z,6.00
2018-09-20T12:07:19.794Z,4.67
2018-09-20T12:09:48.674Z,2.85
2018-09-20T12:12:17.458Z,4.08
2018-09-20T12:14:46.281Z,6.62
2018-09-20T12:18:00.153Z,5.75
2018-09-20T12:20:28.982Z,5.67
2018-09-20T12:22:57.933Z,3.37
2018-09-20T12:25:26.912Z,4.03
2018-09-20T12:27:55.804Z,4.25
2018-09-20T12:30:24.579Z,4.87
2018-09-20T12:32:53.359Z,4.33
2018-09-20T12:35:22.368Z,4.85
2018-09-20T12:37:51.238Z,3.52
2018-09-20T12:40:20.138Z,4.90
2018-09-20T12:42:48.961Z,5.42
2018-09-20T12:45:17.802Z,4.72
2018-09-20T12:47:46.708Z,4.83
2018-09-20T12:50:15.503Z,7.03
2018-09-20T12:52:44.303Z,5.58
2018-09-20T12:55:13.146Z,3.52
2018-09-20T12:57:41.919Z,4.78
2018-09-20T13:00:11.248Z,4.17
2018-09-20T13:02:40.169Z,6.45
2018-09-20T13:05:09.098Z,3.72
2018-09-20T13:07:37.964Z,2.45
2018-09-20T13:10:06.844Z,3.85
2018-09-20T13:12:35.717Z,5.78
2018-09-20T13:15:05.321Z,5.78
2018-09-20T13:17:34.148Z,4.67
2018-09-20T13:20:03.555Z,4.10
2018-09-20T13:22:32.372Z,3.47
2018-09-20T13:25:01.176Z,5.72
2018-09-20T13:27:30.046Z,4.55
2018-09-20T13:29:59.017Z,3.58
2018-09-20T13:32:27.927Z,3.77
2018-09-20T13:34:56.835Z,3.52
2018-09-20T13:37:25.711Z,4.50
2018-09-20T13:39:55.623Z,3.83
2018-09-20T13:42:24.510Z,6.15
2018-09-20T13:44:53.426Z,5.75
2018-09-20T13:47:22.307Z,4.45
2018-09-20T13:49:51.107Z,4.97
2018-09-20T13:52:19.940Z,4.90
2018-09-20T13:54:48.733Z,4.65
2018-09-20T13:57:17.653Z,5.10
2018-09-20T13:59:46.470Z,3.45
2018-09-20T14:02:15.565Z,4.08
2018-09-20T14:04:44.393Z,3.92
2018-09-20T14:07:13.183Z,5.37
2018-09-20T14:09:42.022Z,2.70
2018-09-20T14:12:10.861Z,4.87
2018-09-20T14:14:39.801Z,3.70
2018-09-20T14:17:08.747Z,3.50
2018-09-20T14:19:37.639Z,2.72
2018-09-20T14:22:06.511Z,3.77
2018-09-20T14:24:35.376Z,5.35
2018-09-20T14:27:04.362Z,4.53
2018-09-20T14:29:33.270Z,4.47
2018-09-20T14:32:02.060Z,3.30
2018-09-20T14:34:30.885Z,4.37
2018-09-20T14:36:59.753Z,5.97
2018-09-20T14:39:28.603Z,4.80
2018-09-20T14:41:57.354Z,3.15
2018-09-20T14:44:26.149Z,3.85
2018-09-20T14:46:55.002Z,5.08
2018-09-20T14:49:23.918Z,3.17
2018-09-20T14:51:52.694Z,4.15
2018-09-20T14:54:21.455Z,3.70
2018-09-20T14:56:50.248Z,4.22
2018-09-20T14:59:19.082Z,3.40
2018-09-20T15:01:47.944Z,5.58
2018-09-20T15:04:16.755Z,4.03
2018-09-20T15:06:45.931Z,3.27
2018-09-20T15:09:14.905Z,4.37
2018-09-20T15:11:43.982Z,2.95
2018-09-20T15:14:12.804Z,4.10
2018-09-20T15:16:41.574Z,2.72
2018-09-20T15:19:10.397Z,2.50
2018-09-20T15:21:39.946Z,4.60
2018-09-20T15:24:08.835Z,2.75
2018-09-20T15:26:37.628Z,4.87
2018-09-20T15:29:06.419Z,3.87
2018-09-20T15:31:35.208Z,3.77
2018-09-20T15:34:04.254Z,4.30
2018-09-20T15:36:33.070Z,4.72
2018-09-20T15:39:01.890Z,3.98
2018-09-20T15:41:30.755Z,4.75
2018-09-20T15:43:59.614Z,3.77
2018-09-20T15:46:28.486Z,3.25
2018-09-20T15:48:57.346Z,4.90
2018-09-20T15:51:26.204Z,5.95
2018-09-20T15:53:55.053Z,3.90
2018-09-20T15:56:23.916Z,3.08
2018-09-20T15:58:52.825Z,4.85
2018-09-20T16:01:21.654Z,3.87
2018-09-20T16:03:50.504Z,6.22
2018-09-20T16:06:19.410Z,5.78
2018-09-20T16:08:48.315Z,4.03
2018-09-20T16:11:17.192Z,4.78
2018-09-20T16:13:46.060Z,4.37
2018-09-20T16:16:14.906Z,2.92
2018-09-20T16:18:43.733Z,5.70
2018-09-20T16:21:12.586Z,4.47
2018-09-20T16:23:42.250Z,4.53
2018-09-20T16:26:11.052Z,4.70
2018-09-20T16:28:59.109Z,3.95
2018-09-20T16:37:03.761Z,4.92
2018-09-20T16:39:35.863Z,4.60
2018-09-20T16:42:06.169Z,3.62
2018-09-20T16:44:35.067Z,4.53
2018-09-20T16:47:04.222Z,3.22
2018-09-20T16:49:33.055Z,4.05
2018-09-20T16:52:01.869Z,2.25
2018-09-20T16:54:30.763Z,4.70
2018-09-20T16:56:59.599Z,4.08
2018-09-20T16:59:28.638Z,4.28
2018-09-20T17:01:57.499Z,3.30
2018-09-20T17:04:26.287Z,2.65
2018-09-20T17:06:55.164Z,5.85
2018-09-20T17:09:24.017Z,3.27
2018-09-20T17:11:52.840Z,4.42
2018-09-20T17:14:21.777Z,2.98
2018-09-20T17:16:50.819Z,3.80
2018-09-20T17:19:19.754Z,6.78
2018-09-20T17:21:48.807Z,3.15
2018-09-20T17:24:17.665Z,3.37
2018-09-20T17:26:46.588Z,4.67
2018-09-20T17:29:15.540Z,6.28
2018-09-20T17:31:44.555Z,5.17
2018-09-20T17:34:13.744Z,5.58
2018-09-20T17:36:43.233Z,6.42
2018-09-20T17:39:13.963Z,4.87
2018-09-20T17:41:45.292Z,6.60
2018-09-20T17:44:14.260Z,6.70
2018-09-20T17:46:43.211Z,5.97
2018-09-20T17:49:12.265Z,7.80
2018-09-20T17:51:41.598Z,4.85
2018-09-20T17:54:11.135Z,6.28
2018-09-20T17:56:40.675Z,6.12
2018-09-20T17:59:09.585Z,5.22
2018-09-20T18:01:38.400Z,6.62
2018-09-20T18:04:07.297Z,5.67
2018-09-20T18:06:36.229Z,4.62
2018-09-20T18:09:08.066Z,3.62
2018-09-20T18:11:37.078Z,3.83
2018-09-20T18:14:06.065Z,4.67
2018-09-20T18:16:34.979Z,4.90
2018-09-20T18:19:03.919Z,6.35
2018-09-20T18:21:33.056Z,4.15
2018-09-20T18:24:02.230Z,5.35
2018-09-20T18:26:31.121Z,3.80
2018-09-20T18:28:59.959Z,5.40
2018-09-20T18:31:28.820Z,6.30
2018-09-20T18:33:57.781Z,3.50
2018-09-20T18:36:26.634Z,5.75
2018-09-20T18:38:55.596Z,4.62
2018-09-20T18:41:24.515Z,5.03
2018-09-20T18:43:53.406Z,4.70
2018-09-20T18:46:22.351Z,6.62
2018-09-20T18:48:51.179Z,4.83
2018-09-20T18:51:20.117Z,3.20
2018-09-20T18:53:49.112Z,4.45
2018-09-20T18:56:18.008Z,2.25
2018-09-20T18:58:47.084Z,4.00
2018-09-20T19:01:15.987Z,5.17
2018-09-20T19:03:44.983Z,4.40
2018-09-20T19:06:14.091Z,6.53
2018-09-20T19:08:43.023Z,6.50
2018-09-20T19:11:11.980Z,4.28
2018-09-20T19:13:40.926Z,4.72
2018-09-20T19:16:10.033Z,4.87
2018-09-20T19:18:39.108Z,4.37
2018-09-20T19:21:08.234Z,5.28
2018-09-20T19:23:37.394Z,4.42
2018-09-20T19:26:06.422Z,1.75
2018-09-20T19:28:35.303Z,4.53
2018-09-20T19:31:04.271Z,3.25
2018-09-20T19:33:33.150Z,5.50
2018-09-20T19:36:02.002Z,3.90
2018-09-20T19:38:30.958Z,3.27
2018-09-20T19:40:59.902Z,4.30
2018-09-20T19:43:28.746Z,3.90
2018-09-20T19:45:57.623Z,4.28
2018-09-20T19:48:26.884Z,3.20
2018-09-20T19:50:55.843Z,3.83
2018-09-20T19:53:24.745Z,2.55
2018-09-20T19:55:53.639Z,3.00
2018-09-20T19:58:22.497Z,4.22
2018-09-20T20:00:51.444Z,2.27
2018-09-20T20:03:20.334Z,3.75
2018-09-20T20:05:49.226Z,5.35
2018-09-20T20:08:18.326Z,4.37
2018-09-20T20:10:47.241Z,3.55
2018-09-20T20:13:16.200Z,4.50
2018-09-20T20:15:45.146Z,8.58
2018-09-20T20:18:14.034Z,7.10
2018-09-20T20:20:42.948Z,10.43
2018-09-20T20:23:11.830Z,6.65
2018-09-20T20:25:40.694Z,6.15
2018-09-20T20:28:09.528Z,6.90
2018-09-20T20:30:38.366Z,9.43
2018-09-20T20:33:07.388Z,9.48
2018-09-20T20:35:36.710Z,14.68
2018-09-20T20:38:06.038Z,8.20
2018-09-20T20:40:35.130Z,7.37
2018-09-20T20:43:04.408Z,12.28
2018-09-20T20:45:33.500Z,10.58
2018-09-20T20:48:02.632Z,12.95
2018-09-20T20:50:31.650Z,10.58
2018-09-20T20:53:00.617Z,8.18
2018-09-20T20:55:29.593Z,7.45
2018-09-20T20:57:58.515Z,8.88
2018-09-20T21:00:27.581Z,9.43
2018-09-20T21:02:56.443Z,7.25
2018-09-20T21:05:25.354Z,6.08
2018-09-20T21:07:54.494Z,6.28
2018-09-20T21:10:23.322Z,6.17
2018-09-20T21:12:52.258Z,9.13
2018-09-20T21:15:21.274Z,7.17
2018-09-20T21:17:50.195Z,10.90
2018-09-20T21:20:18.983Z,6.78
2018-09-20T21:22:47.818Z,7.58
2018-09-20T21:25:16.614Z,10.00
2018-09-20T21:27:45.472Z,12.63
2018-09-20T21:30:14.656Z,6.33
2018-09-20T21:32:43.476Z,6.72
2018-09-20T21:35:12.302Z,11.08
2018-09-20T21:37:41.381Z,6.70
2018-09-20T21:40:09.163Z,9.93
2018-09-20T21:42:38.012Z,8.50
2018-09-20T21:45:07.002Z,8.43
2018-09-20T21:47:35.832Z,7.15
2018-09-20T21:50:04.943Z,9.80
2018-09-20T21:52:33.752Z,7.70
2018-09-20T21:55:03.527Z,5.72
2018-09-20T21:57:32.483Z,9.45
2018-09-20T22:00:01.447Z,9.48
2018-09-20T22:02:35.432Z,9.20
2018-09-20T22:05:04.622Z,6.70
2018-09-20T22:07:33.578Z,6.60
2018-09-20T22:10:02.700Z,7.37
2018-09-20T22:12:31.511Z,7.47
2018-09-20T22:15:00.377Z,5.92
2018-09-20T22:17:29.159Z,7.15
2018-09-20T22:19:58.008Z,6.95
2018-09-20T22:22:26.813Z,6.33
2018-09-20T22:24:55.694Z,6.92
2018-09-20T22:27:24.470Z,4.70
2018-09-20T22:29:53.307Z,6.65
2018-09-20T22:32:22.215Z,5.87
2018-09-20T22:34:51.116Z,6.12
2018-09-20T22:37:19.905Z,4.70
2018-09-20T22:39:48.780Z,8.40
2018-09-20T22:42:17.581Z,5.17
2018-09-20T22:44:46.400Z,5.65
2018-09-20T22:47:15.291Z,6.58
2018-09-20T22:49:44.072Z,3.70
2018-09-20T22:52:12.878Z,4.35
2018-09-20T22:54:41.783Z,4.53
2018-09-20T22:57:10.585Z,3.98
2018-09-20T22:59:39.412Z,6.00
2018-09-20T23:02:08.192Z,4.42
2018-09-20T23:04:37.009Z,3.30
2018-09-20T23:07:05.938Z,4.80
2018-09-20T23:09:34.859Z,3.77
2018-09-20T23:12:03.791Z,3.30
2018-09-20T23:14:32.845Z,4.08
2018-09-20T23:17:01.678Z,3.83
2018-09-20T23:19:30.517Z,4.42
2018-09-20T23:21:59.274Z,4.67
2018-09-20T23:24:28.092Z,4.37
2018-09-20T23:26:56.958Z,6.15
2018-09-20T23:29:25.774Z,3.60
2018-09-20T23:31:54.592Z,5.17
2018-09-20T23:34:23.378Z,4.75
2018-09-20T23:36:52.244Z,4.67
2018-09-20T23:39:21.126Z,5.58
2018-09-20T23:41:49.888Z,4.72
2018-09-20T23:44:18.759Z,4.53
2018-09-20T23:46:47.640Z,3.67
2018-09-20T23:49:16.497Z,5.17
2018-09-20T23:51:45.341Z,3.70
2018-09-20T23:54:14.216Z,4.33
2018-09-20T23:56:43.041Z,4.17
2018-09-20T23:59:12.019Z,3.62
